sensor_id;sensor_type;location;lat;lon;timestamp;pressure;altitude;pressure_sealevel;temperature;humidity
44637;BME280;30343;0.000;0.000;2022-08-11T00:00:08;100466.16;;;21.43;49.75
44637;BME280;30343;0.000;0.000;2022-08-11T00:03:06;100461.78;;;21.42;49.91
44637;BME280;30343;0.000;0.000;2022-08-11T00:05:55;100461.81;;;21.41;50.01
44637;BME280;30343;0.000;0.000;2022-08-11T00:08:41;100458.38;;;21.37;49.85
44637;BME280;30343;0.000;0.000;2022-08-11T00:11:43;100454.09;;;21.33;49.90
44637;BME280;30343;0.000;0.000;2022-08-11T00:14:30;100458.47;;;21.33;49.85
44637;BME280;30343;0.000;0.000;2022-08-11T00:17:18;100466.38;;;21.33;49.86
44637;BME280;30343;0.000;0.000;2022-08-11T00:20:10;100452.34;;;21.32;50.12
44637;BME280;30343;0.000;0.000;2022-08-11T00:23:09;100456.72;;;21.33;50.18
44637;BME280;30343;0.000;0.000;2022-08-11T00:25:57;100458.47;;;21.33;50.24
44637;BME280;30343;0.000;0.000;2022-08-11T00:28:41;100458.47;;;21.33;50.14
44637;BME280;30343;0.000;0.000;2022-08-11T00:31:30;100456.72;;;21.33;50.09
44637;BME280;30343;0.000;0.000;2022-08-11T00:34:24;100455.88;;;21.31;50.16
44637;BME280;30343;0.000;0.000;2022-08-11T00:37:10;100459.44;;;21.28;49.94
44637;BME280;30343;0.000;0.000;2022-08-11T00:40:02;100453.31;;;21.28;50.19
44637;BME280;30343;0.000;0.000;2022-08-11T00:43:14;100460.34;;;21.27;50.18
44637;BME280;30343;0.000;0.000;2022-08-11T00:46:25;100461.22;;;21.28;50.22
44637;BME280;30343;0.000;0.000;2022-08-11T00:52:50;100459.47;;;21.27;50.58
44637;BME280;30343;0.000;0.000;2022-08-11T01:29:52;100462.97;;;21.27;51.00
44637;BME280;30343;0.000;0.000;2022-08-11T01:36:23;100458.59;;;21.26;50.97
44637;BME280;30343;0.000;0.000;2022-08-11T01:46:00;100458.59;;;21.28;51.24
44637;BME280;30343;0.000;0.000;2022-08-11T01:52:16;100462.97;;;21.29;51.58
44637;BME280;30343;0.000;0.000;2022-08-11T01:55:48;100464.72;;;21.28;51.23
44637;BME280;30343;0.000;0.000;2022-08-11T01:58:55;100459.44;;;21.28;51.29
44637;BME280;30343;0.000;0.000;2022-08-11T02:01:53;100449.78;;;21.27;51.45
44637;BME280;30343;0.000;0.000;2022-08-11T02:04:55;100456.91;;;21.25;51.33
44637;BME280;30343;0.000;0.000;2022-08-11T02:07:55;100462.97;;;21.27;51.38
44637;BME280;30343;0.000;0.000;2022-08-11T02:11:03;100458.59;;;21.26;51.54
44637;BME280;30343;0.000;0.000;2022-08-11T02:14:27;100455.97;;;21.26;51.62
44637;BME280;30343;0.000;0.000;2022-08-11T02:17:21;100464.81;;;21.25;51.53
44637;BME280;30343;0.000;0.000;2022-08-11T02:20:30;100461.28;;;21.25;51.21
44637;BME280;30343;0.000;0.000;2022-08-11T02:23:48;100460.44;;;21.24;51.21
44637;BME280;30343;0.000;0.000;2022-08-11T02:26:59;100461.31;;;21.23;51.15
44637;BME280;30343;0.000;0.000;2022-08-11T02:32:38;100451.63;;;21.25;51.31
44637;BME280;30343;0.000;0.000;2022-08-11T02:36:23;100449.00;;;21.25;51.35
44637;BME280;30343;0.000;0.000;2022-08-11T02:39:13;100453.31;;;21.26;51.59
44637;BME280;30343;0.000;0.000;2022-08-11T02:42:16;100447.16;;;21.27;51.52
44637;BME280;30343;0.000;0.000;2022-08-11T02:48:05;100441.03;;;21.27;51.53
44637;BME280;30343;0.000;0.000;2022-08-11T02:52:00;100444.63;;;21.24;51.17
44637;BME280;30343;0.000;0.000;2022-08-11T03:04:24;100450.78;;;21.23;51.48
44637;BME280;30343;0.000;0.000;2022-08-11T03:07:35;100442.03;;;21.21;51.46
44637;BME280;30343;0.000;0.000;2022-08-11T03:11:16;100442.03;;;21.21;51.50
44637;BME280;30343;0.000;0.000;2022-08-11T03:14:51;100436.78;;;21.21;51.24
44637;BME280;30343;0.000;0.000;2022-08-11T03:18:15;100431.50;;;21.20;51.49
44637;BME280;30343;0.000;0.000;2022-08-11T03:21:20;100430.66;;;21.19;51.77
44637;BME280;30343;0.000;0.000;2022-08-11T03:24:17;100432.41;;;21.19;51.30
44637;BME280;30343;0.000;0.000;2022-08-11T03:30:06;100448.22;;;21.19;51.81
44637;BME280;30343;0.000;0.000;2022-08-11T03:33:04;100435.94;;;21.19;51.51
44637;BME280;30343;0.000;0.000;2022-08-11T03:39:09;100440.47;;;21.12;51.48
44637;BME280;30343;0.000;0.000;2022-08-11T03:42:12;100438.72;;;21.11;51.82
44637;BME280;30343;0.000;0.000;2022-08-11T03:45:35;100437.00;;;21.10;51.67
44637;BME280;30343;0.000;0.000;2022-08-11T03:48:28;100440.47;;;21.11;51.69
44637;BME280;30343;0.000;0.000;2022-08-11T03:51:28;100445.75;;;21.11;51.85
44637;BME280;30343;0.000;0.000;2022-08-11T03:57:35;100443.13;;;21.11;51.99
44637;BME280;30343;0.000;0.000;2022-08-11T04:01:30;100441.38;;;21.10;52.03
44637;BME280;30343;0.000;0.000;2022-08-11T04:04:27;100446.66;;;21.10;51.67
44637;BME280;30343;0.000;0.000;2022-08-11T04:19:46;100437.94;;;21.06;51.82
44637;BME280;30343;0.000;0.000;2022-08-11T04:23:39;100438.84;;;21.07;51.88
44637;BME280;30343;0.000;0.000;2022-08-11T04:35:30;100442.38;;;21.06;51.72
44637;BME280;30343;0.000;0.000;2022-08-11T05:01:48;100448.66;;;20.98;51.91
44637;BME280;30343;0.000;0.000;2022-08-11T05:05:13;100445.16;;;20.98;51.89
44637;BME280;30343;0.000;0.000;2022-08-11T05:17:34;100444.28;;;20.97;51.89
44637;BME280;30343;0.000;0.000;2022-08-11T05:20:45;100453.91;;;20.98;52.09
44637;BME280;30343;0.000;0.000;2022-08-11T05:23:56;100458.34;;;20.98;51.67
44637;BME280;30343;0.000;0.000;2022-08-11T05:27:01;100453.06;;;20.98;51.97
44637;BME280;30343;0.000;0.000;2022-08-11T05:30:08;100460.09;;;20.97;52.01
44637;BME280;30343;0.000;0.000;2022-08-11T05:33:33;100456.59;;;20.97;51.90
44637;BME280;30343;0.000;0.000;2022-08-11T05:36:48;100456.59;;;20.97;51.98
44637;BME280;30343;0.000;0.000;2022-08-11T05:39:40;100468.00;;;20.97;51.96
44637;BME280;30343;0.000;0.000;2022-08-11T05:42:52;100470.63;;;20.97;52.02
44637;BME280;30343;0.000;0.000;2022-08-11T05:46:01;100473.25;;;20.97;52.28
44637;BME280;30343;0.000;0.000;2022-08-11T05:49:08;100464.50;;;20.97;52.21
44637;BME280;30343;0.000;0.000;2022-08-11T05:52:22;100479.44;;;20.96;52.21
44637;BME280;30343;0.000;0.000;2022-08-11T05:55:28;100466.25;;;20.96;52.21
44637;BME280;30343;0.000;0.000;2022-08-11T05:58:37;100471.53;;;20.96;52.27
44637;BME280;30343;0.000;0.000;2022-08-11T06:04:20;100467.13;;;20.97;52.16
44637;BME280;30343;0.000;0.000;2022-08-11T06:07:10;100468.88;;;20.96;52.12
44637;BME280;30343;0.000;0.000;2022-08-11T06:09:58;100466.31;;;20.95;52.46
44637;BME280;30343;0.000;0.000;2022-08-11T06:12:54;100466.31;;;20.95;52.25
44637;BME280;30343;0.000;0.000;2022-08-11T06:15:47;100469.78;;;20.95;52.46
44637;BME280;30343;0.000;0.000;2022-08-11T06:18:32;100468.94;;;20.95;52.35
44637;BME280;30343;0.000;0.000;2022-08-11T06:21:20;100468.94;;;20.95;52.46
44637;BME280;30343;0.000;0.000;2022-08-11T06:24:14;100462.78;;;20.94;52.45
44637;BME280;30343;0.000;0.000;2022-08-11T06:27:02;100467.16;;;20.95;52.36
44637;BME280;30343;0.000;0.000;2022-08-11T06:29:52;100463.63;;;20.96;52.35
44637;BME280;30343;0.000;0.000;2022-08-11T06:32:44;100464.53;;;20.95;52.33
44637;BME280;30343;0.000;0.000;2022-08-11T06:38:48;100468.00;;;20.97;52.53
44637;BME280;30343;0.000;0.000;2022-08-11T06:41:59;100472.41;;;20.97;52.38
44637;BME280;30343;0.000;0.000;2022-08-11T06:45:00;100475.06;;;20.95;52.23
44637;BME280;30343;0.000;0.000;2022-08-11T06:47:50;100476.78;;;20.96;52.62
44637;BME280;30343;0.000;0.000;2022-08-11T06:50:40;100472.41;;;20.97;52.23
44637;BME280;30343;0.000;0.000;2022-08-11T06:53:57;100470.63;;;20.97;52.56
44637;BME280;30343;0.000;0.000;2022-08-11T06:56:46;100470.63;;;20.99;52.73
44637;BME280;30343;0.000;0.000;2022-08-11T06:59:53;100472.34;;;21.00;52.55
44637;BME280;30343;0.000;0.000;2022-08-11T07:02:59;100474.94;;;21.02;52.66
44637;BME280;30343;0.000;0.000;2022-08-11T07:05:49;100467.03;;;21.02;52.70
44637;BME280;30343;0.000;0.000;2022-08-11T07:08:58;100470.53;;;21.02;52.57
44637;BME280;30343;0.000;0.000;2022-08-11T07:12:19;100470.53;;;21.02;52.48
44637;BME280;30343;0.000;0.000;2022-08-11T07:15:35;100467.00;;;21.03;52.51
44637;BME280;30343;0.000;0.000;2022-08-11T07:18:28;100477.53;;;21.03;52.77
44637;BME280;30343;0.000;0.000;2022-08-11T07:21:34;100474.91;;;21.03;52.65
44637;BME280;30343;0.000;0.000;2022-08-11T07:25:02;100473.16;;;21.04;52.72
44637;BME280;30343;0.000;0.000;2022-08-11T07:28:15;100471.38;;;21.04;52.58
44637;BME280;30343;0.000;0.000;2022-08-11T07:31:50;100479.28;;;21.04;52.64
44637;BME280;30343;0.000;0.000;2022-08-11T07:34:36;100468.72;;;21.04;52.73
44637;BME280;30343;0.000;0.000;2022-08-11T07:37:22;100473.09;;;21.05;52.78
44637;BME280;30343;0.000;0.000;2022-08-11T07:40:08;100471.34;;;21.06;52.63
44637;BME280;30343;0.000;0.000;2022-08-11T07:42:58;100479.22;;;21.07;52.51
44637;BME280;30343;0.000;0.000;2022-08-11T07:45:44;100473.94;;;21.07;52.51
44637;BME280;30343;0.000;0.000;2022-08-11T07:48:51;100472.19;;;21.08;52.62
44637;BME280;30343;0.000;0.000;2022-08-11T07:51:54;100479.16;;;21.10;52.69
44637;BME280;30343;0.000;0.000;2022-08-11T07:55:01;100474.75;;;21.11;52.87
44637;BME280;30343;0.000;0.000;2022-08-11T07:57:48;100479.19;;;21.09;52.81
44637;BME280;30343;0.000;0.000;2022-08-11T08:00:54;100486.22;;;21.08;52.43
44637;BME280;30343;0.000;0.000;2022-08-11T08:03:58;100483.59;;;21.08;52.58
44637;BME280;30343;0.000;0.000;2022-08-11T08:07:03;100478.31;;;21.08;52.74
44637;BME280;30343;0.000;0.000;2022-08-11T08:10:08;100481.84;;;21.09;52.57
44637;BME280;30343;0.000;0.000;2022-08-11T08:13:11;100477.47;;;21.08;53.09
44637;BME280;30343;0.000;0.000;2022-08-11T08:16:15;100477.41;;;21.09;52.92
44637;BME280;30343;0.000;0.000;2022-08-11T08:19:19;100482.69;;;21.09;52.57
44637;BME280;30343;0.000;0.000;2022-08-11T08:22:04;100474.84;;;21.08;52.84
44637;BME280;30343;0.000;0.000;2022-08-11T08:24:48;100473.94;;;21.09;52.43
44637;BME280;30343;0.000;0.000;2022-08-11T08:27:34;100476.56;;;21.09;52.52
44637;BME280;30343;0.000;0.000;2022-08-11T08:30:19;100468.66;;;21.09;52.62
44637;BME280;30343;0.000;0.000;2022-08-11T08:33:24;100479.16;;;21.10;52.52
44637;BME280;30343;0.000;0.000;2022-08-11T08:36:09;100473.84;;;21.12;52.50
44637;BME280;30343;0.000;0.000;2022-08-11T08:38:59;100477.38;;;21.12;52.56
44637;BME280;30343;0.000;0.000;2022-08-11T08:41:44;100475.63;;;21.11;52.24
44637;BME280;30343;0.000;0.000;2022-08-11T08:44:30;100472.94;;;21.13;52.37
44637;BME280;30343;0.000;0.000;2022-08-11T08:47:23;100483.47;;;21.13;52.42
44637;BME280;30343;0.000;0.000;2022-08-11T08:50:11;100478.19;;;21.14;52.34
44637;BME280;30343;0.000;0.000;2022-08-11T08:53:02;100469.41;;;21.16;52.35
44637;BME280;30343;0.000;0.000;2022-08-11T08:55:49;100474.63;;;21.17;52.19
44637;BME280;30343;0.000;0.000;2022-08-11T08:58:36;100469.34;;;21.17;52.16
44637;BME280;30343;0.000;0.000;2022-08-11T09:01:21;100464.91;;;21.19;52.43
44637;BME280;30343;0.000;0.000;2022-08-11T09:04:08;100465.78;;;21.20;52.21
44637;BME280;30343;0.000;0.000;2022-08-11T09:06:59;100466.63;;;21.22;52.37
44637;BME280;30343;0.000;0.000;2022-08-11T09:09:51;100473.59;;;21.24;52.43
44637;BME280;30343;0.000;0.000;2022-08-11T09:12:38;100464.81;;;21.24;52.05
44637;BME280;30343;0.000;0.000;2022-08-11T09:15:24;100470.97;;;21.24;52.24
44637;BME280;30343;0.000;0.000;2022-08-11T09:18:09;100457.75;;;21.26;52.10
44637;BME280;30343;0.000;0.000;2022-08-11T09:20:55;100461.25;;;21.26;52.09
44637;BME280;30343;0.000;0.000;2022-08-11T09:23:41;100459.44;;;21.28;52.22
44637;BME280;30343;0.000;0.000;2022-08-11T09:26:44;100461.22;;;21.28;51.96
44637;BME280;30343;0.000;0.000;2022-08-11T09:29:45;100452.41;;;21.29;51.95
44637;BME280;30343;0.000;0.000;2022-08-11T09:32:29;100446.25;;;21.30;52.14
44637;BME280;30343;0.000;0.000;2022-08-11T09:35:15;100451.47;;;21.33;52.11
44637;BME280;30343;0.000;0.000;2022-08-11T09:38:04;100447.00;;;21.35;51.80
44637;BME280;30343;0.000;0.000;2022-08-11T09:41:08;100447.00;;;21.35;51.95
44637;BME280;30343;0.000;0.000;2022-08-11T09:43:59;100441.75;;;21.34;52.01
44637;BME280;30343;0.000;0.000;2022-08-11T09:47:05;100445.19;;;21.37;51.85
44637;BME280;30343;0.000;0.000;2022-08-11T09:49:59;100442.53;;;21.39;51.85
44637;BME280;30343;0.000;0.000;2022-08-11T09:52:44;100442.44;;;21.42;51.72
44637;BME280;30343;0.000;0.000;2022-08-11T09:55:28;100443.38;;;21.41;51.81
44637;BME280;30343;0.000;0.000;2022-08-11T09:58:14;100437.16;;;21.42;51.91
44637;BME280;30343;0.000;0.000;2022-08-11T10:01:01;100444.19;;;21.43;51.67
44637;BME280;30343;0.000;0.000;2022-08-11T10:03:47;100435.38;;;21.44;51.66
44637;BME280;30343;0.000;0.000;2022-08-11T10:06:33;100429.25;;;21.43;51.49
44637;BME280;30343;0.000;0.000;2022-08-11T10:09:42;100418.66;;;21.45;51.83
44637;BME280;30343;0.000;0.000;2022-08-11T10:12:33;100423.84;;;21.48;51.39
44637;BME280;30343;0.000;0.000;2022-08-11T10:15:21;100423.84;;;21.48;51.63
44637;BME280;30343;0.000;0.000;2022-08-11T10:18:20;100419.47;;;21.49;51.19
44637;BME280;30343;0.000;0.000;2022-08-11T10:21:41;100415.00;;;21.51;51.46
44637;BME280;30343;0.000;0.000;2022-08-11T10:24:26;100417.63;;;21.52;51.36
44637;BME280;30343;0.000;0.000;2022-08-11T10:27:29;100408.81;;;21.52;51.23
44637;BME280;30343;0.000;0.000;2022-08-11T10:30:16;100414.94;;;21.54;51.36
44637;BME280;30343;0.000;0.000;2022-08-11T10:33:19;100406.97;;;21.57;50.93
44637;BME280;30343;0.000;0.000;2022-08-11T10:36:26;100403.38;;;21.59;50.70
44637;BME280;30343;0.000;0.000;2022-08-11T10:39:14;100397.25;;;21.59;50.85
44637;BME280;30343;0.000;0.000;2022-08-11T10:42:03;100404.22;;;21.62;50.56
44637;BME280;30343;0.000;0.000;2022-08-11T10:45:07;100398.94;;;21.63;50.32
44637;BME280;30343;0.000;0.000;2022-08-11T10:48:13;100394.53;;;21.64;50.31
44637;BME280;30343;0.000;0.000;2022-08-11T10:50:58;100398.03;;;21.64;50.42
44637;BME280;30343;0.000;0.000;2022-08-11T10:53:57;100398.03;;;21.64;50.49
44637;BME280;30343;0.000;0.000;2022-08-11T10:57:01;100398.00;;;21.66;50.24
44637;BME280;30343;0.000;0.000;2022-08-11T11:00:05;100388.34;;;21.65;50.44
44637;BME280;30343;0.000;0.000;2022-08-11T11:02:52;100392.66;;;21.67;50.01
44637;BME280;30343;0.000;0.000;2022-08-11T11:05:37;100381.25;;;21.67;50.30
44637;BME280;30343;0.000;0.000;2022-08-11T11:08:27;100384.75;;;21.69;50.11
44637;BME280;30343;0.000;0.000;2022-08-11T11:11:35;100379.38;;;21.72;49.81
44637;BME280;30343;0.000;0.000;2022-08-11T11:14:40;100375.81;;;21.73;49.76
44637;BME280;30343;0.000;0.000;2022-08-11T11:17:48;100384.56;;;21.75;49.63
44637;BME280;30343;0.000;0.000;2022-08-11T11:21:07;100385.41;;;21.77;49.72
44637;BME280;30343;0.000;0.000;2022-08-11T11:24:10;100381.00;;;21.78;49.39
44637;BME280;30343;0.000;0.000;2022-08-11T11:27:06;100381.00;;;21.78;49.43
44637;BME280;30343;0.000;0.000;2022-08-11T11:30:08;100375.72;;;21.78;49.62
44637;BME280;30343;0.000;0.000;2022-08-11T11:38:40;100361.63;;;21.79;49.37
44637;BME280;30343;0.000;0.000;2022-08-11T11:41:25;100361.59;;;21.80;49.08
44637;BME280;30343;0.000;0.000;2022-08-11T11:44:12;100362.44;;;21.81;49.15
44637;BME280;30343;0.000;0.000;2022-08-11T11:47:00;100361.53;;;21.82;49.13
44637;BME280;30343;0.000;0.000;2022-08-11T11:49:46;100349.22;;;21.82;49.40
44637;BME280;30343;0.000;0.000;2022-08-11T11:52:32;100341.25;;;21.84;49.24
44637;BME280;30343;0.000;0.000;2022-08-11T11:55:20;100342.22;;;21.81;49.21
44637;BME280;30343;0.000;0.000;2022-08-11T11:58:06;100341.25;;;21.84;48.85
44637;BME280;30343;0.000;0.000;2022-08-11T12:01:09;100335.13;;;21.83;48.86
44637;BME280;30343;0.000;0.000;2022-08-11T12:04:02;100329.84;;;21.83;48.43
44637;BME280;30343;0.000;0.000;2022-08-11T12:06:49;100334.22;;;21.84;48.55
44637;BME280;30343;0.000;0.000;2022-08-11T12:09:38;100334.19;;;21.86;48.17
44637;BME280;30343;0.000;0.000;2022-08-11T12:12:26;100334.19;;;21.86;48.27
44637;BME280;30343;0.000;0.000;2022-08-11T12:15:29;100328.06;;;21.85;48.05
44637;BME280;30343;0.000;0.000;2022-08-11T12:18:14;100328.88;;;21.87;48.20
44637;BME280;30343;0.000;0.000;2022-08-11T12:21:03;100327.91;;;21.90;47.99
44637;BME280;30343;0.000;0.000;2022-08-11T12:23:48;100321.69;;;21.93;47.58
44637;BME280;30343;0.000;0.000;2022-08-11T12:26:52;100319.94;;;21.93;47.62
44637;BME280;30343;0.000;0.000;2022-08-11T12:30:01;100312.00;;;21.93;47.68
44637;BME280;30343;0.000;0.000;2022-08-11T12:32:48;100311.97;;;21.95;47.42
44637;BME280;30343;0.000;0.000;2022-08-11T12:35:32;100315.38;;;21.98;46.88
44637;BME280;30343;0.000;0.000;2022-08-11T12:38:21;100302.16;;;22.00;46.87
44637;BME280;30343;0.000;0.000;2022-08-11T12:41:06;100295.91;;;22.02;46.52
44637;BME280;30343;0.000;0.000;2022-08-11T12:44:10;100303.00;;;22.02;46.81
44637;BME280;30343;0.000;0.000;2022-08-11T12:47:24;100295.09;;;22.00;46.75
44637;BME280;30343;0.000;0.000;2022-08-11T12:50:28;100292.47;;;22.00;46.83
44637;BME280;30343;0.000;0.000;2022-08-11T12:53:32;100287.19;;;22.00;46.70
44637;BME280;30343;0.000;0.000;2022-08-11T12:56:23;100288.91;;;22.01;46.91
44637;BME280;30343;0.000;0.000;2022-08-11T12:59:32;100284.53;;;22.02;46.70
44637;BME280;30343;0.000;0.000;2022-08-11T13:02:36;100280.97;;;22.03;46.42
44637;BME280;30343;0.000;0.000;2022-08-11T13:05:41;100284.41;;;22.05;46.43
44637;BME280;30343;0.000;0.000;2022-08-11T13:08:27;100279.94;;;22.07;46.36
44637;BME280;30343;0.000;0.000;2022-08-11T13:11:15;100275.50;;;22.09;46.20
44637;BME280;30343;0.000;0.000;2022-08-11T13:14:21;100272.72;;;22.14;45.89
44637;BME280;30343;0.000;0.000;2022-08-11T13:17:06;100274.47;;;22.15;45.92
44637;BME280;30343;0.000;0.000;2022-08-11T13:20:09;100270.06;;;22.15;46.00
44637;BME280;30343;0.000;0.000;2022-08-11T13:22:56;100259.50;;;22.15;45.92
44637;BME280;30343;0.000;0.000;2022-08-11T13:25:41;100255.06;;;22.16;45.97
44637;BME280;30343;0.000;0.000;2022-08-11T13:28:31;100257.69;;;22.17;46.12
44637;BME280;30343;0.000;0.000;2022-08-11T13:31:22;100258.47;;;22.19;45.79
44637;BME280;30343;0.000;0.000;2022-08-11T13:34:06;100259.31;;;22.21;45.90
44637;BME280;30343;0.000;0.000;2022-08-11T13:36:54;100252.28;;;22.22;45.82
44637;BME280;30343;0.000;0.000;2022-08-11T13:39:42;100254.91;;;22.22;45.89
44637;BME280;30343;0.000;0.000;2022-08-11T13:42:30;100253.13;;;22.23;45.65
44637;BME280;30343;0.000;0.000;2022-08-11T13:45:14;100242.56;;;22.23;45.75
44637;BME280;30343;0.000;0.000;2022-08-11T13:48:02;100253.13;;;22.23;45.88
44637;BME280;30343;0.000;0.000;2022-08-11T13:50:49;100256.59;;;22.25;45.50
44637;BME280;30343;0.000;0.000;2022-08-11T13:53:52;100247.63;;;22.30;45.20
44637;BME280;30343;0.000;0.000;2022-08-11T13:56:38;100243.13;;;22.34;45.25
44637;BME280;30343;0.000;0.000;2022-08-11T13:59:28;100246.56;;;22.36;45.15
44637;BME280;30343;0.000;0.000;2022-08-11T14:02:15;100244.75;;;22.38;44.81
44637;BME280;30343;0.000;0.000;2022-08-11T14:05:04;100241.19;;;22.39;45.02
44637;BME280;30343;0.000;0.000;2022-08-11T14:07:52;100242.09;;;22.40;44.84
44637;BME280;30343;0.000;0.000;2022-08-11T14:10:38;100235.88;;;22.42;44.52
44637;BME280;30343;0.000;0.000;2022-08-11T14:13:25;100240.31;;;22.42;44.64
44637;BME280;30343;0.000;0.000;2022-08-11T14:16:33;100236.63;;;22.46;44.56
44637;BME280;30343;0.000;0.000;2022-08-11T14:19:22;100234.00;;;22.46;44.35
44637;BME280;30343;0.000;0.000;2022-08-11T14:22:07;100224.41;;;22.43;44.41
44637;BME280;30343;0.000;0.000;2022-08-11T14:24:52;100223.44;;;22.46;43.94
44637;BME280;30343;0.000;0.000;2022-08-11T14:27:36;100216.41;;;22.45;44.20
44637;BME280;30343;0.000;0.000;2022-08-11T14:30:20;100223.50;;;22.44;44.28
44637;BME280;30343;0.000;0.000;2022-08-11T14:33:23;100234.06;;;22.44;44.21
44637;BME280;30343;0.000;0.000;2022-08-11T14:36:09;100226.13;;;22.44;44.14
44637;BME280;30343;0.000;0.000;2022-08-11T14:38:56;100219.13;;;22.43;44.21
44637;BME280;30343;0.000;0.000;2022-08-11T14:41:59;100216.47;;;22.43;44.37
44637;BME280;30343;0.000;0.000;2022-08-11T14:45:09;100228.78;;;22.44;44.04
44637;BME280;30343;0.000;0.000;2022-08-11T14:48:13;100219.03;;;22.46;43.97
44637;BME280;30343;0.000;0.000;2022-08-11T14:50:57;100211.81;;;22.51;43.79
44637;BME280;30343;0.000;0.000;2022-08-11T14:53:48;100216.19;;;22.53;43.83
44637;BME280;30343;0.000;0.000;2022-08-11T14:56:55;100210.78;;;22.57;43.63
44637;BME280;30343;0.000;0.000;2022-08-11T14:59:44;100203.63;;;22.61;43.43
44637;BME280;30343;0.000;0.000;2022-08-11T15:02:36;100200.97;;;22.61;43.34
44637;BME280;30343;0.000;0.000;2022-08-11T15:05:56;100199.19;;;22.61;43.77
44637;BME280;30343;0.000;0.000;2022-08-11T15:08:42;100200.06;;;22.62;43.26
44637;BME280;30343;0.000;0.000;2022-08-11T15:11:39;100199.25;;;22.60;43.43
44637;BME280;30343;0.000;0.000;2022-08-11T15:14:46;100199.19;;;22.61;43.33
44637;BME280;30343;0.000;0.000;2022-08-11T15:17:56;100197.44;;;22.62;43.25
44637;BME280;30343;0.000;0.000;2022-08-11T15:20:41;100200.91;;;22.62;43.35
44637;BME280;30343;0.000;0.000;2022-08-11T15:23:44;100200.06;;;22.62;43.25
44637;BME280;30343;0.000;0.000;2022-08-11T15:26:48;100193.91;;;22.61;43.65
44637;BME280;30343;0.000;0.000;2022-08-11T15:29:53;100185.13;;;22.61;43.21
44637;BME280;30343;0.000;0.000;2022-08-11T15:32:57;100186.88;;;22.62;43.41
44637;BME280;30343;0.000;0.000;2022-08-11T15:36:04;100181.50;;;22.65;43.28
44637;BME280;30343;0.000;0.000;2022-08-11T15:39:15;100178.69;;;22.70;43.21
44637;BME280;30343;0.000;0.000;2022-08-11T15:42:12;100180.28;;;22.75;43.51
44637;BME280;30343;0.000;0.000;2022-08-11T15:45:21;100175.81;;;22.77;43.00
44637;BME280;30343;0.000;0.000;2022-08-11T15:51:32;100166.06;;;22.79;43.23
44637;BME280;30343;0.000;0.000;2022-08-11T15:54:19;100172.94;;;22.84;42.84
44637;BME280;30343;0.000;0.000;2022-08-11T15:57:05;100166.75;;;22.85;42.69
44637;BME280;30343;0.000;0.000;2022-08-11T15:59:49;100172.84;;;22.87;42.83
44637;BME280;30343;0.000;0.000;2022-08-11T16:02:53;100171.94;;;22.88;42.74
44637;BME280;30343;0.000;0.000;2022-08-11T16:05:59;100174.50;;;22.89;42.62
44637;BME280;30343;0.000;0.000;2022-08-11T16:08:43;100165.66;;;22.90;42.53
44637;BME280;30343;0.000;0.000;2022-08-11T16:11:28;100158.72;;;22.88;42.60
44637;BME280;30343;0.000;0.000;2022-08-11T16:14:15;100158.66;;;22.89;42.62
44637;BME280;30343;0.000;0.000;2022-08-11T16:17:23;100162.19;;;22.90;42.47
44637;BME280;30343;0.000;0.000;2022-08-11T16:20:12;100154.19;;;22.91;42.45
44637;BME280;30343;0.000;0.000;2022-08-11T16:23:01;100155.16;;;22.89;42.58
44637;BME280;30343;0.000;0.000;2022-08-11T16:25:46;100151.63;;;22.90;42.28
44637;BME280;30343;0.000;0.000;2022-08-11T16:28:33;100157.81;;;22.89;42.36
44637;BME280;30343;0.000;0.000;2022-08-11T16:31:20;100158.78;;;22.86;42.43
44637;BME280;30343;0.000;0.000;2022-08-11T16:34:04;100156.19;;;22.85;42.71
44637;BME280;30343;0.000;0.000;2022-08-11T16:37:12;100148.31;;;22.83;42.59
44637;BME280;30343;0.000;0.000;2022-08-11T16:40:20;100158.81;;;22.85;42.62
44637;BME280;30343;0.000;0.000;2022-08-11T16:43:09;100142.97;;;22.85;42.68
44637;BME280;30343;0.000;0.000;2022-08-11T16:46:16;100148.88;;;22.93;42.33
44637;BME280;30343;0.000;0.000;2022-08-11T16:52:12;100142.28;;;23.05;42.41
44637;BME280;30343;0.000;0.000;2022-08-11T16:54:56;100148.34;;;23.08;41.91
44637;BME280;30343;0.000;0.000;2022-08-11T16:57:44;100143.88;;;23.10;42.28
44637;BME280;30343;0.000;0.000;2022-08-11T17:00:48;100138.53;;;23.12;41.81
44637;BME280;30343;0.000;0.000;2022-08-11T17:03:38;100144.63;;;23.14;41.91
44637;BME280;30343;0.000;0.000;2022-08-11T17:06:46;100148.91;;;23.18;41.52
44637;BME280;30343;0.000;0.000;2022-08-11T17:09:56;100152.38;;;23.19;41.87
44637;BME280;30343;0.000;0.000;2022-08-11T17:13:04;100147.09;;;23.19;41.67
44637;BME280;30343;0.000;0.000;2022-08-11T17:15:55;100145.38;;;23.18;41.49
44637;BME280;30343;0.000;0.000;2022-08-11T17:21:28;100148.03;;;23.18;42.09
44637;BME280;30343;0.000;0.000;2022-08-11T17:24:15;100144.44;;;23.20;41.33
44637;BME280;30343;0.000;0.000;2022-08-11T17:27:01;100136.47;;;23.22;41.32
44637;BME280;30343;0.000;0.000;2022-08-11T17:29:53;100138.19;;;23.23;41.67
44637;BME280;30343;0.000;0.000;2022-08-11T17:32:40;100138.09;;;23.26;41.26
44637;BME280;30343;0.000;0.000;2022-08-11T17:35:43;100138.09;;;23.26;41.34
44637;BME280;30343;0.000;0.000;2022-08-11T17:38:34;100142.50;;;23.25;41.35
44637;BME280;30343;0.000;0.000;2022-08-11T17:41:22;100140.75;;;23.26;41.20
44637;BME280;30343;0.000;0.000;2022-08-11T17:44:29;100140.66;;;23.27;41.03
44637;BME280;30343;0.000;0.000;2022-08-11T17:47:33;100141.41;;;23.31;41.27
44637;BME280;30343;0.000;0.000;2022-08-11T17:50:40;100140.31;;;23.37;40.92
44637;BME280;30343;0.000;0.000;2022-08-11T17:53:26;100136.72;;;23.39;40.82
44637;BME280;30343;0.000;0.000;2022-08-11T17:56:35;100141.03;;;23.42;40.84
44637;BME280;30343;0.000;0.000;2022-08-11T17:59:41;100132.13;;;23.45;40.64
44637;BME280;30343;0.000;0.000;2022-08-11T18:02:37;100133.91;;;23.44;40.76
44637;BME280;30343;0.000;0.000;2022-08-11T18:05:43;100135.66;;;23.45;40.69
44637;BME280;30343;0.000;0.000;2022-08-11T18:08:40;100140.88;;;23.47;40.70